Hovedside
METAR-TAF:

METAR-TAF

Lufthavner :

Rovaniemi lufthavn

Rovaniemi, Finland

breddegrad: 66-34N, lengdegrad: 025-50E, høyde over havet: 197 m

Gjeldene værobservasjon

Denne rapporten ble laget for 37 minutter siden, klokken 04:20 UTC
Vind 5 kt fra Vest, skiftende mellom Sørvest og Vest-nordvest
Temperatur 11°C
Luftfuktighet 66%
Trykk 998 hPa
Sikt 10 km eller mer
ingen skyer under 1500 m og ingen bygeskyer

METAR: EFRO 210420Z 27005KT 230V300 CAVOK 11/05 Q0998

Tid: 07:57 (04:57 UTC)

Varsel

Denne rapporten ble laget for 2 timer og 32 minutter siden, klokken 02:25 UTC
Varsel gyldig fra 21. klokken 03 UTC til 22. klokken 03 UTC
Vind 10 kt fra Vest
Sikt 10 km eller mer
ingen skyer under 1500 m og ingen bygeskyer
Blir
fra 21. klokken 18 UTC til 21. klokken 20 UTC
Vind 4 kt fra Nord

TAF: EFRO 210225Z 2103/2203 26010KT CAVOK BECMG 2118/2120 35004KT

Værobservasjoner og værvarsel for over 4000 flyplasser (METAR- og TAF-rapporter).

Tilgjengelige stasjoner er representert av de røde og gule prikkene på kartet.

Hold musepekeren over prikken for å se navnet på stasjonen.

Klikk så for å se værobservasjoner og -varsler.

For å forandre kartet kan du klikke på den grønne knappen med svart kryss for å zoome inn, på den grønne knappen med strek for å zoome ut, eller på de grønne pilene for å se tilstøtende kart.


METAR-TAF: